Time;durP1;ratioP1;P1;durP2;ratioP2;P2;SDS_P1;SDS_P2;PMS_P1;PMS_P2;Temp;Humidity;BMP_temperature;BMP_pressure;BME280_temperature;BME280_humidity;BME280_pressure;Samples;Min_cycle;Max_cycle;Signal;HPM_P1;HPM_P2
2024/03/21 00:00:35;;;;;;;4.20;1.60;;;;;;;11.17;63.31;95836.38;5092170;28;20184;-78
2024/03/21 00:03:01;;;;;;;2.43;1.63;;;;;;;11.16;63.26;95833.94;5086444;28;20193;-78
2024/03/21 00:05:26;;;;;;;1.80;1.40;;;;;;;11.07;63.37;95833.81;5080205;28;20176;-78
2024/03/21 00:07:52;;;;;;;1.83;1.50;;;;;;;11.17;63.13;95831.19;5095888;28;20716;-78
2024/03/21 00:10:19;;;;;;;2.47;1.70;;;;;;;11.19;62.99;95829.25;5092741;28;20208;-78
2024/03/21 00:12:45;;;;;;;4.50;1.63;;;;;;;11.21;62.88;95827.31;5071014;28;20184;-78
2024/03/21 00:15:10;;;;;;;3.03;1.50;;;;;;;11.15;63.41;95827.09;5073539;28;20238;-78
2024/03/21 00:17:36;;;;;;;1.97;1.37;;;;;;;11.13;63.53;95832.44;5090053;28;20200;-78
2024/03/21 00:20:09;;;;;;;3.67;2.00;;;;;;;11.07;63.81;95831.22;5088895;28;20195;-78
2024/03/21 00:22:34;;;;;;;4.50;1.60;;;;;;;11.03;64.09;95829.84;5069800;28;20608;-78
2024/03/21 00:25:00;;;;;;;1.90;1.57;;;;;;;11.01;64.15;95826.59;5087430;28;20223;-78
2024/03/21 00:27:25;;;;;;;2.33;1.70;;;;;;;10.93;64.71;95823.88;5092137;28;20205;-78
2024/03/21 00:29:50;;;;;;;2.60;1.43;;;;;;;11.04;64.02;95822.88;5081759;28;20270;-78
2024/03/21 00:32:16;;;;;;;2.73;1.70;;;;;;;10.98;64.54;95818.28;5086820;28;20181;-78
2024/03/21 00:34:42;;;;;;;3.03;1.73;;;;;;;10.89;65.06;95817.34;5088623;28;20188;-78
2024/03/21 00:37:07;;;;;;;3.50;1.90;;;;;;;10.86;65.73;95814.19;5087679;28;20204;-78
2024/03/21 00:39:32;;;;;;;5.47;1.83;;;;;;;10.90;65.41;95811.19;5091123;28;20211;-78
2024/03/21 00:41:58;;;;;;;1.83;1.63;;;;;;;10.83;65.46;95811.91;5069351;28;20213;-78
2024/03/21 00:44:24;;;;;;;2.50;1.73;;;;;;;10.81;65.61;95812.06;5090501;28;20715;-78
2024/03/21 00:46:49;;;;;;;3.70;2.10;;;;;;;10.71;66.01;95816.47;5088824;28;20207;-78
2024/03/21 00:49:16;;;;;;;3.30;1.57;;;;;;;10.73;66.71;95815.34;5081294;28;20275;-78
2024/03/21 00:51:41;;;;;;;2.20;1.70;;;;;;;10.69;67.73;95815.75;5077262;28;21454;-79
2024/03/21 00:54:07;;;;;;;4.67;1.80;;;;;;;10.66;68.72;95821.25;5104151;28;20231;-78
2024/03/21 00:56:32;;;;;;;1.60;1.50;;;;;;;10.74;68.74;95813.56;5093499;28;20205;-79
2024/03/21 00:58:58;;;;;;;5.40;1.80;;;;;;;10.74;69.58;95818.75;5097265;28;20319;-78
2024/03/21 01:01:25;;;;;;;3.80;1.70;;;;;;;10.87;69.93;95814.09;5094037;28;20180;-78
2024/03/21 01:03:50;;;;;;;3.03;1.97;;;;;;;11.03;69.83;95813.44;5088911;28;20294;-78
2024/03/21 01:06:15;;;;;;;1.67;1.50;;;;;;;11.07;69.23;95810.44;5092966;28;20217;-78
2024/03/21 01:08:41;;;;;;;1.67;1.57;;;;;;;11.12;69.36;95798.78;5089039;28;20188;-79
2024/03/21 01:11:07;;;;;;;1.87;1.47;;;;;;;11.15;69.02;95807.13;5094211;28;20558;-78
2024/03/21 01:13:32;;;;;;;2.67;1.80;;;;;;;11.24;68.73;95806.25;5089001;28;20186;-78
2024/03/21 01:15:57;;;;;;;2.00;1.80;;;;;;;11.15;69.59;95808.91;5091810;28;20192;-78
2024/03/21 01:18:34;;;;;;;1.60;1.30;;;;;;;11.21;69.41;95809.13;5104510;28;20220;-77
2024/03/21 01:21:00;;;;;;;4.27;1.60;;;;;;;11.37;68.88;95800.69;5091099;28;20560;-78
2024/03/21 01:23:26;;;;;;;2.20;1.80;;;;;;;11.45;68.52;95797.38;5066530;28;20213;-78
2024/03/21 01:25:51;;;;;;;3.13;1.90;;;;;;;11.35;68.72;95787.84;5100957;28;20612;-78
2024/03/21 01:28:16;;;;;;;2.13;1.80;;;;;;;11.39;69.00;95792.75;5088250;28;20204;-77
2024/03/21 01:30:41;;;;;;;2.93;1.67;;;;;;;11.40;68.92;95787.41;5092839;28;20188;-78
2024/03/21 01:33:07;;;;;;;2.70;1.60;;;;;;;11.48;68.58;95790.06;5085048;28;20192;-78
2024/03/21 01:35:32;;;;;;;2.30;2.10;;;;;;;11.45;69.05;95779.97;5097418;28;20184;-78
2024/03/21 01:37:58;;;;;;;1.93;1.70;;;;;;;11.41;69.28;95777.84;5091974;28;20201;-78
2024/03/21 01:40:23;;;;;;;2.20;1.50;;;;;;;11.55;68.62;95782.50;5103315;28;20176;-78
2024/03/21 01:42:49;;;;;;;1.80;1.50;;;;;;;11.57;68.55;95783.16;5084423;28;20221;-78
2024/03/21 01:45:15;;;;;;;1.70;1.60;;;;;;;11.49;68.92;95783.94;5079558;28;20185;-79
2024/03/21 01:47:41;;;;;;;2.47;1.57;;;;;;;11.59;68.74;95789.88;5086952;28;20205;-78
2024/03/21 01:50:07;;;;;;;3.60;1.77;;;;;;;11.70;68.52;95793.22;5101712;28;20187;-78
2024/03/21 01:52:35;;;;;;;1.97;1.53;;;;;;;11.68;68.46;95784.75;5092570;28;20184;-78
2024/03/21 01:55:01;;;;;;;3.17;1.60;;;;;;;11.71;68.44;95787.88;5105560;28;20631;-79
2024/03/21 01:57:26;;;;;;;5.33;1.63;;;;;;;11.81;68.09;95785.22;5073586;28;20212;-78
2024/03/21 01:59:56;;;;;;;2.47;1.60;;;;;;;11.72;68.21;95791.28;5088620;28;20179;-78
2024/03/21 02:02:22;;;;;;;3.90;1.60;;;;;;;11.82;68.04;95794.66;5075640;28;20195;-78
2024/03/21 02:04:48;;;;;;;1.93;1.80;;;;;;;11.84;67.87;95790.16;5086728;28;20575;-78
2024/03/21 02:07:16;;;;;;;1.97;1.40;;;;;;;11.87;67.96;95792.44;5084316;28;20200;-78
2024/03/21 02:09:41;;;;;;;2.27;1.77;;;;;;;11.93;67.69;95791.00;5073879;28;20203;-77
2024/03/21 02:12:08;;;;;;;2.77;1.43;;;;;;;11.94;68.05;95798.69;5087125;28;20185;-78
2024/03/21 02:14:38;;;;;;;2.00;1.80;;;;;;;11.84;68.23;95795.34;5103082;28;20272;-77
2024/03/21 02:17:04;;;;;;;1.93;1.73;;;;;;;11.91;68.05;95797.19;5091089;28;20201;-78
2024/03/21 02:19:29;;;;;;;2.67;1.70;;;;;;;11.93;68.01;95791.84;5095753;28;20196;-78
2024/03/21 02:24:39;;;;;;;2.77;1.57;;;;;;;12.00;67.85;95794.66;5088042;28;20842;-78
2024/03/21 02:27:04;;;;;;;1.60;1.50;;;;;;;11.99;67.68;95791.22;5093164;28;20236;-78
2024/03/21 02:29:30;;;;;;;3.23;1.50;;;;;;;12.02;67.75;95787.53;5092370;28;20208;-78
2024/03/21 02:31:55;;;;;;;3.30;1.70;;;;;;;11.99;68.06;95786.03;5091450;28;20233;-78
2024/03/21 02:34:21;;;;;;;1.50;1.40;;;;;;;12.15;67.73;95790.53;5081928;28;20248;-79
2024/03/21 02:36:46;;;;;;;2.87;1.90;;;;;;;12.09;67.85;95789.34;5084544;28;20259;-78
2024/03/21 02:39:11;;;;;;;2.43;1.50;;;;;;;12.16;67.76;95787.78;5074689;28;20261;-78
2024/03/21 02:41:36;;;;;;;4.80;1.80;;;;;;;12.21;67.39;95789.94;5076003;28;20201;-78
2024/03/21 02:44:02;;;;;;;1.67;1.43;;;;;;;12.13;67.80;95790.72;5092378;28;20208;-78
2024/03/21 02:46:27;;;;;;;3.00;1.80;;;;;;;12.17;67.88;95796.41;5083115;28;20204;-78
2024/03/21 02:48:53;;;;;;;2.67;1.50;;;;;;;12.25;67.79;95795.66;5080139;28;20227;-78
2024/03/21 02:51:18;;;;;;;7.47;1.70;;;;;;;12.29;67.64;95797.81;5098075;28;20187;-77
2024/03/21 02:53:44;;;;;;;1.77;1.57;;;;;;;12.30;67.29;95794.25;5077140;28;20188;-77
2024/03/21 02:56:10;;;;;;;1.93;1.57;;;;;;;12.32;67.54;95800.13;5093296;28;20643;-77
2024/03/21 02:58:35;;;;;;;1.67;1.40;;;;;;;12.34;67.44;95802.56;5088040;28;20181;-77
2024/03/21 03:01:00;;;;;;;3.23;1.80;;;;;;;12.30;67.45;95803.84;5093885;28;20206;-79
2024/03/21 03:03:26;;;;;;;2.53;1.97;;;;;;;12.29;67.43;95807.44;5077347;28;20200;-79
2024/03/21 03:05:51;;;;;;;3.03;1.70;;;;;;;12.22;67.68;95801.19;5107924;28;20181;-77
2024/03/21 03:08:16;;;;;;;4.90;1.87;;;;;;;12.15;67.70;95804.38;5082264;28;20600;-77
2024/03/21 03:10:42;;;;;;;1.97;1.77;;;;;;;12.06;67.70;95813.09;5106919;28;20703;-77
2024/03/21 03:13:07;;;;;;;2.03;1.60;;;;;;;12.02;67.99;95811.78;5086805;28;20770;-78
2024/03/21 03:15:32;;;;;;;2.97;1.90;;;;;;;11.98;68.49;95814.81;5093972;28;20633;-78
2024/03/21 03:17:59;;;;;;;2.10;1.70;;;;;;;11.91;68.53;95819.78;5105031;28;20197;-77
2024/03/21 03:20:24;;;;;;;2.40;1.97;;;;;;;11.87;68.88;95813.25;5099082;28;20188;-78
2024/03/21 03:22:49;;;;;;;2.83;1.90;;;;;;;11.81;69.55;95821.66;5090009;28;20192;-78
2024/03/21 03:25:15;;;;;;;3.00;2.00;;;;;;;11.75;69.51;95824.81;5107769;28;20187;-78
2024/03/21 03:27:40;;;;;;;3.00;1.70;;;;;;;11.72;69.77;95825.09;5091875;28;20258;-79
2024/03/21 03:30:06;;;;;;;1.50;1.40;;;;;;;11.69;70.07;95820.22;5097097;28;20254;-78
2024/03/21 03:32:47;;;;;;;1.77;1.67;;;;;;;11.69;70.72;95821.03;5095213;28;20192;-78
2024/03/21 03:37:56;;;;;;;1.80;1.70;;;;;;;11.64;71.16;95821.44;5093275;28;20265;-78
2024/03/21 03:40:21;;;;;;;3.83;2.00;;;;;;;11.67;71.08;95828.16;5077383;28;20188;-78
2024/03/21 03:42:47;;;;;;;4.00;1.70;;;;;;;11.62;71.48;95819.97;5090152;28;20203;-78
2024/03/21 03:45:13;;;;;;;3.43;1.80;;;;;;;11.62;71.80;95820.78;5097248;28;20201;-78
2024/03/21 03:47:38;;;;;;;2.93;1.67;;;;;;;11.63;71.56;95825.03;5093968;28;20211;-78
2024/03/21 03:50:04;;;;;;;4.00;1.80;;;;;;;11.64;72.09;95813.66;5090358;28;20195;-78
2024/03/21 03:52:29;;;;;;;3.40;1.90;;;;;;;11.73;71.88;95813.72;5095101;28;20226;-78
2024/03/21 03:54:54;;;;;;;1.80;1.70;;;;;;;11.73;71.96;95818.94;5088516;28;20172;-78
2024/03/21 03:57:20;;;;;;;3.27;1.87;;;;;;;11.81;71.86;95825.06;5091632;28;20201;-78
2024/03/21 03:59:45;;;;;;;1.93;1.73;;;;;;;11.82;71.54;95831.09;5072134;28;20184;-78
2024/03/21 04:02:11;;;;;;;3.13;2.17;;;;;;;11.85;71.63;95828.22;5094413;28;20275;-78
2024/03/21 04:04:36;;;;;;;2.37;1.83;;;;;;;11.81;71.77;95830.28;5094235;28;20209;-78
2024/03/21 04:07:01;;;;;;;2.27;2.00;;;;;;;11.88;71.43;95831.31;5091523;28;20415;-78
2024/03/21 04:09:27;;;;;;;2.87;1.63;;;;;;;11.87;71.46;95826.28;5093104;28;20598;-78
2024/03/21 04:11:52;;;;;;;2.53;2.10;;;;;;;11.83;71.97;95832.72;5096969;28;20191;-78
2024/03/21 04:14:17;;;;;;;2.00;1.80;;;;;;;12.06;71.02;95833.91;5088828;28;20215;-78
2024/03/21 04:16:43;;;;;;;2.20;2.00;;;;;;;12.12;70.71;95820.31;5095935;28;20250;-78
2024/03/21 04:19:08;;;;;;;4.07;2.00;;;;;;;12.14;70.59;95830.56;5079152;28;20248;-78
2024/03/21 04:21:33;;;;;;;2.23;2.00;;;;;;;12.14;70.50;95825.38;5106959;28;20185;-78
2024/03/21 04:23:59;;;;;;;1.90;1.80;;;;;;;12.06;70.80;95830.50;5068180;28;20574;-78
2024/03/21 04:26:24;;;;;;;2.77;2.10;;;;;;;12.22;70.34;95833.25;5093480;28;20662;-78
2024/03/21 04:28:49;;;;;;;2.17;1.97;;;;;;;12.25;69.96;95832.94;5097248;28;20180;-78
2024/03/21 04:31:15;;;;;;;2.10;1.87;;;;;;;12.24;69.97;95836.50;5095425;28;20181;-78
2024/03/21 04:33:40;;;;;;;4.20;1.90;;;;;;;12.29;69.99;95839.50;5086485;28;20178;-78
2024/03/21 04:36:07;;;;;;;2.57;2.00;;;;;;;12.27;70.21;95845.78;5077804;28;20193;-78
2024/03/21 04:38:32;;;;;;;1.80;1.70;;;;;;;12.22;70.15;95838.44;5077353;28;20213;-78
2024/03/21 04:40:57;;;;;;;3.03;1.97;;;;;;;12.16;70.40;95841.66;5094356;28;20211;-78
2024/03/21 04:43:23;;;;;;;4.17;2.00;;;;;;;12.28;69.69;95837.00;5087678;28;20208;-78
2024/03/21 04:45:48;;;;;;;2.93;1.97;;;;;;;12.27;69.63;95843.19;5095870;28;20188;-78
2024/03/21 04:48:13;;;;;;;2.03;1.83;;;;;;;12.22;69.89;95853.25;5071135;28;20221;-78
2024/03/21 04:50:39;;;;;;;3.13;1.90;;;;;;;12.22;69.85;95858.47;5087083;28;20190;-78
2024/03/21 04:53:04;;;;;;;1.83;1.67;;;;;;;12.21;70.13;95851.63;5093025;28;20193;-78
2024/03/21 04:55:29;;;;;;;4.27;1.77;;;;;;;12.28;69.64;95855.25;5108380;28;20216;-78
2024/03/21 04:57:55;;;;;;;3.93;1.97;;;;;;;12.22;69.73;95854.06;5100610;28;20205;-78
2024/03/21 05:00:20;;;;;;;4.03;2.00;;;;;;;12.16;70.15;95860.69;5088330;28;20267;-78
2024/03/21 05:02:45;;;;;;;1.77;1.57;;;;;;;12.19;69.82;95860.41;5075530;28;20263;-78
2024/03/21 05:05:11;;;;;;;3.33;2.10;;;;;;;12.17;70.15;95858.91;5090694;28;20607;-78
2024/03/21 05:07:36;;;;;;;2.07;1.80;;;;;;;12.17;70.23;95854.50;5092447;28;20246;-78
2024/03/21 05:10:02;;;;;;;2.20;2.00;;;;;;;12.19;70.16;95852.59;5089354;28;20709;-78
2024/03/21 05:12:27;;;;;;;5.37;2.33;;;;;;;12.23;70.27;95860.09;5076201;28;20187;-78
2024/03/21 05:14:53;;;;;;;2.10;1.90;;;;;;;12.30;69.92;95856.75;5071835;28;20204;-78
2024/03/21 05:17:20;;;;;;;3.27;2.07;;;;;;;12.30;69.96;95848.13;5076515;28;20200;-78
2024/03/21 05:19:45;;;;;;;2.70;1.73;;;;;;;12.32;70.08;95846.16;5102871;28;20179;-78
2024/03/21 05:22:10;;;;;;;2.40;1.90;;;;;;;12.32;69.57;95848.78;5102185;28;20525;-78
2024/03/21 05:24:36;;;;;;;3.07;2.43;;;;;;;12.37;69.38;95842.16;5082278;28;20209;-78
2024/03/21 05:27:02;;;;;;;4.27;2.30;;;;;;;12.37;69.42;95854.38;5074184;28;20603;-77
2024/03/21 05:29:29;;;;;;;2.13;1.80;;;;;;;12.31;69.43;95862.78;5091233;28;20764;-78
2024/03/21 05:31:54;;;;;;;3.47;2.20;;;;;;;12.31;69.64;95862.78;5093279;28;20184;-78
2024/03/21 05:34:19;;;;;;;2.80;2.10;;;;;;;12.36;69.33;95860.50;5083355;28;20181;-78
2024/03/21 05:36:45;;;;;;;3.17;2.10;;;;;;;12.40;69.03;95854.06;5099423;28;20699;-78
2024/03/21 05:39:10;;;;;;;2.87;2.17;;;;;;;12.53;68.45;95854.47;5090245;28;20181;-78
2024/03/21 05:41:35;;;;;;;2.43;2.13;;;;;;;12.58;68.15;95854.03;5096157;28;20254;-78
2024/03/21 05:44:01;;;;;;;3.30;2.20;;;;;;;12.50;68.48;95862.59;5084351;28;20213;-78
2024/03/21 05:46:29;;;;;;;3.40;2.20;;;;;;;12.64;67.99;95858.63;5094354;28;20239;-78
2024/03/21 05:48:54;;;;;;;3.07;2.07;;;;;;;12.72;67.68;95869.94;5088918;28;20181;-77
2024/03/21 05:51:20;;;;;;;4.80;2.77;;;;;;;12.80;67.62;95873.53;5105831;28;20284;-78
2024/03/21 05:53:45;;;;;;;4.00;1.97;;;;;;;12.79;67.54;95869.28;5092345;28;20295;-77
2024/03/21 05:56:13;;;;;;;3.37;1.87;;;;;;;12.83;67.08;95881.06;5086453;28;20207;-77
2024/03/21 05:58:38;;;;;;;3.07;2.10;;;;;;;12.74;68.00;95864.56;5092724;28;20177;-77
2024/03/21 06:03:35;;;;;;;4.53;3.13;;;;;;;12.85;67.92;95876.50;5084776;28;20208;-79
2024/03/21 06:06:01;;;;;;;5.03;2.47;;;;;;;12.74;68.17;95875.78;5096799;28;20666;-77
2024/03/21 06:08:26;;;;;;;6.40;2.50;;;;;;;12.73;68.19;95881.97;5083987;28;20240;-77
2024/03/21 06:10:51;;;;;;;3.40;2.00;;;;;;;12.81;67.91;95881.22;5090816;28;20247;-77
2024/03/21 06:13:17;;;;;;;4.50;2.43;;;;;;;12.85;67.75;95892.97;5073277;28;20183;-78
2024/03/21 06:15:42;;;;;;;3.33;2.90;;;;;;;12.91;67.87;95891.53;5068603;28;20248;-78
2024/03/21 06:18:08;;;;;;;2.93;2.43;;;;;;;12.94;67.88;95901.66;5084216;28;20215;-78
2024/03/21 06:20:33;;;;;;;4.27;2.40;;;;;;;12.96;67.98;95899.69;5065445;28;20327;-78
2024/03/21 06:22:59;;;;;;;4.10;2.90;;;;;;;13.10;67.34;95901.75;5065004;28;20769;-78
2024/03/21 06:25:24;;;;;;;3.80;2.60;;;;;;;13.22;67.18;95900.53;5073640;28;20176;-78
2024/03/21 06:27:49;;;;;;;3.60;2.43;;;;;;;13.24;66.66;95895.16;5094883;28;20228;-78
2024/03/21 06:30:16;;;;;;;3.57;2.53;;;;;;;13.40;66.26;95907.47;5081455;28;20677;-77
2024/03/21 06:32:41;;;;;;;3.17;2.77;;;;;;;13.35;66.40;95912.34;5081336;28;20182;-77
2024/03/21 06:35:07;;;;;;;5.03;2.83;;;;;;;13.32;66.71;95911.66;5071329;28;20268;-78
2024/03/21 06:37:33;;;;;;;4.53;2.53;;;;;;;13.43;66.09;95914.97;5084746;28;20208;-78
2024/03/21 06:39:59;;;;;;;5.93;3.10;;;;;;;13.44;66.23;95920.06;5065714;28;20197;-78
2024/03/21 06:42:24;;;;;;;3.30;2.90;;;;;;;13.41;66.47;95925.56;5077863;28;20306;-78
2024/03/21 06:44:50;;;;;;;5.90;3.00;;;;;;;13.40;66.76;95926.53;5065587;28;20197;-78
2024/03/21 06:47:15;;;;;;;3.83;3.20;;;;;;;13.24;67.37;95927.28;5082302;28;20216;-78
2024/03/21 06:49:41;;;;;;;5.07;3.10;;;;;;;13.41;67.12;95929.97;5062367;28;20184;-78
2024/03/21 06:52:06;;;;;;;5.73;3.73;;;;;;;13.39;67.12;95932.75;5088957;28;20219;-78
2024/03/21 06:54:32;;;;;;;5.10;3.00;;;;;;;13.43;67.53;95943.66;5080209;28;20185;-78
2024/03/21 06:56:57;;;;;;;2.97;2.77;;;;;;;13.42;67.24;95934.22;5079247;28;20234;-78
2024/03/21 06:59:23;;;;;;;4.40;3.10;;;;;;;13.24;67.75;95934.28;5054534;28;20193;-78
2024/03/21 07:01:48;;;;;;;4.77;3.23;;;;;;;13.53;66.83;95945.22;5098632;28;20183;-77
2024/03/21 07:04:13;;;;;;;4.77;3.23;;;;;;;13.54;66.38;95943.41;5073170;28;20236;-77
2024/03/21 07:06:39;;;;;;;3.70;2.93;;;;;;;13.69;66.35;95944.44;5059515;28;20209;-77
2024/03/21 07:09:04;;;;;;;3.57;3.03;;;;;;;13.73;66.33;95953.63;5085103;28;20185;-80
2024/03/21 07:11:29;;;;;;;3.53;3.10;;;;;;;13.80;66.33;95970.28;5059197;28;20189;-79
2024/03/21 07:13:57;;;;;;;4.03;3.40;;;;;;;13.67;66.97;95967.28;5060219;28;20181;-78
2024/03/21 07:16:23;;;;;;;3.73;3.23;;;;;;;13.77;67.32;95977.59;5088213;28;20181;-78
2024/03/21 07:18:49;;;;;;;7.97;3.63;;;;;;;13.81;67.20;95965.88;5062249;28;20245;-78
2024/03/21 07:21:14;;;;;;;3.93;3.43;;;;;;;13.85;66.99;95975.84;5059406;28;20271;-78
2024/03/21 07:23:39;;;;;;;6.30;4.07;;;;;;;14.01;66.45;95971.66;5077129;28;20237;-78
2024/03/21 07:26:06;;;;;;;4.13;3.20;;;;;;;14.11;66.21;95975.75;5075456;28;20192;-79
2024/03/21 07:28:31;;;;;;;5.20;3.13;;;;;;;14.13;66.40;95984.28;5069476;28;20239;-78
2024/03/21 07:30:58;;;;;;;5.30;3.37;;;;;;;14.06;66.40;95972.00;5084141;28;20188;-78
2024/03/21 07:33:24;;;;;;;5.17;3.03;;;;;;;14.14;66.40;95979.88;5074985;28;20269;-79
2024/03/21 07:35:57;;;;;;;6.27;3.80;;;;;;;14.10;66.50;95981.16;5073917;28;20787;-78
2024/03/21 07:38:22;;;;;;;4.87;3.67;;;;;;;14.19;66.37;95990.66;5067940;28;20215;-78
2024/03/21 07:40:58;;;;;;;4.47;3.67;;;;;;;14.15;66.54;95995.38;5061166;28;20184;-78
2024/03/21 07:43:24;;;;;;;5.23;4.10;;;;;;;14.27;65.88;95989.84;5084289;28;20205;-78
2024/03/21 07:45:50;;;;;;;4.50;4.10;;;;;;;14.24;66.82;96001.44;5088014;28;20645;-78
2024/03/21 07:48:15;;;;;;;6.80;4.63;;;;;;;13.95;67.42;95993.97;5076338;28;20204;-78
2024/03/21 07:50:40;;;;;;;4.03;3.63;;;;;;;14.20;67.09;95997.50;5078205;28;20184;-78
2024/03/21 07:53:06;;;;;;;6.50;4.57;;;;;;;14.32;67.04;96004.09;5077748;28;20187;-78
2024/03/21 07:55:32;;;;;;;5.67;4.30;;;;;;;14.24;66.99;96005.84;5079022;28;20461;-78
2024/03/21 07:57:58;;;;;;;6.67;4.30;;;;;;;14.43;66.46;96006.38;5066927;28;20201;-78
2024/03/21 08:00:23;;;;;;;5.87;4.60;;;;;;;14.47;65.79;96006.91;5059488;28;20184;-79
2024/03/21 08:02:50;;;;;;;5.00;3.97;;;;;;;14.66;65.24;96006.59;5074418;28;20221;-78
2024/03/21 08:05:15;;;;;;;5.30;4.33;;;;;;;14.86;64.72;96011.56;5065335;28;20196;-78
2024/03/21 08:07:40;;;;;;;6.97;4.37;;;;;;;14.77;64.51;96010.72;5056331;28;20296;-79
2024/03/21 08:10:06;;;;;;;6.33;4.90;;;;;;;14.65;64.31;96020.66;5076493;28;20220;-78
2024/03/21 08:12:31;;;;;;;5.03;3.90;;;;;;;14.56;64.27;96026.84;5096373;28;20185;-78
2024/03/21 08:14:56;;;;;;;6.10;3.83;;;;;;;14.57;64.90;96028.47;5063599;28;20176;-79
2024/03/21 08:17:22;;;;;;;5.43;4.00;;;;;;;14.45;65.22;96025.38;5073373;28;20204;-79
2024/03/21 08:19:50;;;;;;;5.10;4.60;;;;;;;14.49;64.73;96022.41;5068872;28;20663;-78
2024/03/21 08:22:16;;;;;;;6.07;4.53;;;;;;;14.48;65.06;96024.22;5071569;28;20181;-78
2024/03/21 08:24:41;;;;;;;6.53;4.57;;;;;;;14.56;64.48;96029.47;5071549;28;20287;-78
2024/03/21 08:27:06;;;;;;;6.87;4.10;;;;;;;14.36;64.94;96038.53;5091825;28;20567;-79
2024/03/21 08:29:32;;;;;;;5.47;4.47;;;;;;;14.62;64.30;96046.31;5067540;28;20230;-78
2024/03/21 08:32:00;;;;;;;5.97;4.20;;;;;;;14.84;63.74;96048.31;5069041;28;20173;-78
2024/03/21 08:34:25;;;;;;;4.03;3.63;;;;;;;14.95;63.88;96045.38;5054636;28;20188;-78
2024/03/21 08:36:51;;;;;;;5.37;3.73;;;;;;;15.30;62.65;96053.91;5071513;28;20554;-78
2024/03/21 08:39:16;;;;;;;5.33;4.57;;;;;;;15.19;62.80;96054.19;5073996;28;20553;-82
2024/03/21 08:41:41;;;;;;;5.90;4.10;;;;;;;15.39;61.76;96057.31;5069792;28;20198;-81
2024/03/21 08:44:07;;;;;;;6.70;4.20;;;;;;;15.54;61.51;96058.28;5073697;28;20295;-79
2024/03/21 08:46:32;;;;;;;6.63;4.67;;;;;;;15.47;60.97;96063.38;5078486;28;20219;-80
2024/03/21 08:48:57;;;;;;;6.93;4.23;;;;;;;15.82;60.57;96064.81;5070915;28;20658;-80
2024/03/21 08:51:23;;;;;;;6.80;4.83;;;;;;;15.70;60.40;96073.16;5063755;28;20181;-79
2024/03/21 08:53:48;;;;;;;7.47;4.60;;;;;;;15.74;60.54;96069.25;5081659;28;20751;-79
2024/03/21 08:56:13;;;;;;;7.43;4.83;;;;;;;15.75;60.46;96078.75;5072884;28;20181;-78
2024/03/21 08:58:39;;;;;;;6.00;4.40;;;;;;;15.75;60.43;96086.59;5091130;28;20192;-78
2024/03/21 09:01:04;;;;;;;5.57;4.83;;;;;;;15.75;59.98;96076.13;5053993;28;20180;-78
2024/03/21 09:03:31;;;;;;;4.80;4.40;;;;;;;16.07;59.69;96083.88;5080447;28;20212;-79
2024/03/21 09:05:57;;;;;;;5.93;4.73;;;;;;;15.71;59.68;96080.84;5074160;28;20185;-80
2024/03/21 09:08:22;;;;;;;6.40;4.57;;;;;;;15.57;60.04;96079.72;5058276;28;20201;-79
2024/03/21 09:10:48;;;;;;;6.93;4.60;;;;;;;15.83;59.97;96082.16;5056557;28;20176;-79
2024/03/21 09:13:14;;;;;;;7.27;5.43;;;;;;;15.99;59.10;96086.56;5057377;28;20224;-79
2024/03/21 09:15:39;;;;;;;6.37;5.00;;;;;;;16.23;58.71;96082.19;5058815;28;20180;-79
2024/03/21 09:18:05;;;;;;;6.90;5.43;;;;;;;16.31;57.09;96083.00;5083495;28;20209;-79
2024/03/21 09:20:30;;;;;;;6.70;5.80;;;;;;;16.40;57.34;96086.41;5079071;28;20204;-79
2024/03/21 09:22:56;;;;;;;7.87;4.93;;;;;;;16.75;55.85;96084.28;5088386;28;20185;-78
2024/03/21 09:25:21;;;;;;;6.93;5.00;;;;;;;16.97;56.12;96088.75;5061509;28;20191;-79
2024/03/21 09:27:46;;;;;;;10.50;4.97;;;;;;;17.43;55.39;96086.13;5079162;28;20222;-78
2024/03/21 09:30:12;;;;;;;6.90;5.35;;;;;;;17.40;54.95;96095.16;5069493;28;20244;-78
2024/03/21 09:32:38;;;;;;;7.15;5.60;;;;;;;17.43;53.43;96094.81;5076950;28;20192;-78
2024/03/21 09:35:06;;;;;;;6.18;5.45;;;;;;;17.25;53.17;96108.25;5052195;28;20677;-79
2024/03/21 09:37:32;;;;;;;8.68;5.68;;;;;;;17.04;53.29;96110.66;5093827;28;20291;-78
2024/03/21 09:39:57;;;;;;;7.00;4.68;;;;;;;16.78;54.42;96112.78;5091377;28;20224;-78
2024/03/21 09:42:23;;;;;;;7.53;5.70;;;;;;;16.52;54.63;96111.25;5076238;28;20207;-78
2024/03/21 09:44:51;;;;;;;6.78;5.63;;;;;;;16.54;54.92;96125.00;5073179;28;20220;-78
2024/03/21 09:47:19;;;;;;;8.25;6.32;;;;;;;16.67;54.76;96120.03;5075451;28;20205;-77
2024/03/21 09:49:46;;;;;;;7.50;5.18;;;;;;;17.17;53.76;96120.59;5084571;28;20179;-78
2024/03/21 09:52:11;;;;;;;6.93;5.78;;;;;;;16.96;54.04;96124.69;5076979;28;20200;-78
2024/03/21 09:54:37;;;;;;;6.13;5.00;;;;;;;17.41;52.64;96136.19;5086327;28;20564;-78
2024/03/21 09:57:03;;;;;;;8.95;5.15;;;;;;;17.79;52.75;96133.59;5096417;28;20295;-78
2024/03/21 09:59:29;;;;;;;12.30;6.22;;;;;;;17.04;52.88;96129.03;5078737;28;20196;-78
2024/03/21 10:01:54;;;;;;;7.40;5.80;;;;;;;17.31;52.63;96132.94;5077240;28;20526;-79
2024/03/21 10:04:19;;;;;;;6.45;5.43;;;;;;;17.56;52.71;96131.78;5063303;28;20201;-78
2024/03/21 10:06:46;;;;;;;8.00;5.90;;;;;;;17.34;52.96;96137.06;5077236;28;20242;-78
2024/03/21 10:09:12;;;;;;;12.10;6.70;;;;;;;16.86;51.80;96133.72;5077509;28;20192;-78
2024/03/21 10:11:37;;;;;;;7.82;6.25;;;;;;;16.54;54.66;96134.69;5065395;28;20189;-78
2024/03/21 10:14:03;;;;;;;9.07;7.00;;;;;;;16.96;53.25;96140.41;5078177;28;20295;-77
2024/03/21 10:16:29;;;;;;;9.07;6.53;;;;;;;17.31;52.89;96142.63;5074238;28;20200;-79
2024/03/21 10:18:54;;;;;;;8.65;5.82;;;;;;;17.44;52.93;96143.69;5071272;28;20173;-77
2024/03/21 10:21:22;;;;;;;8.85;6.90;;;;;;;16.95;51.86;96137.94;5071652;28;20181;-78
2024/03/21 10:23:47;;;;;;;8.40;6.88;;;;;;;16.87;52.86;96143.22;5074536;28;20211;-78
2024/03/21 10:26:15;;;;;;;8.25;6.88;;;;;;;16.68;53.15;96139.19;5059991;28;20211;-79
2024/03/21 10:28:41;;;;;;;10.65;7.00;;;;;;;16.63;54.24;96133.66;5089978;28;20610;-78
2024/03/21 10:31:12;;;;;;;9.70;7.22;;;;;;;16.74;53.32;96150.84;5075069;28;20199;-78
2024/03/21 10:33:38;;;;;;;11.63;7.05;;;;;;;16.99;53.17;96149.75;5062853;28;20177;-77
2024/03/21 10:36:04;;;;;;;12.30;8.05;;;;;;;16.63;53.33;96144.97;5069677;28;20173;-77
2024/03/21 10:38:29;;;;;;;12.25;7.30;;;;;;;16.73;53.85;96139.53;5089017;28;20208;-77
2024/03/21 10:40:56;;;;;;;11.30;7.38;;;;;;;16.51;53.79;96151.56;5075150;28;20664;-77
2024/03/21 10:43:22;;;;;;;9.00;8.10;;;;;;;16.85;53.86;96153.91;5057772;28;20220;-78
2024/03/21 10:45:47;;;;;;;12.63;8.80;;;;;;;16.70;53.74;96145.97;5059865;28;20180;-77
2024/03/21 10:48:28;;;;;;;9.35;8.38;;;;;;;16.76;53.95;96143.63;5070386;28;20196;-77
2024/03/21 10:50:53;;;;;;;12.63;9.43;;;;;;;16.81;54.35;96151.81;5088714;28;20177;-77
2024/03/21 10:53:20;;;;;;;10.73;9.35;;;;;;;17.10;52.97;96149.34;5090817;28;20198;-77
2024/03/21 10:55:45;;;;;;;10.30;8.30;;;;;;;16.93;52.91;96145.16;5078076;28;20217;-78
2024/03/21 10:58:15;;;;;;;9.00;8.10;;;;;;;16.99;53.66;96157.63;5070489;28;20669;-77
2024/03/21 11:00:40;;;;;;;12.43;8.30;;;;;;;17.08;54.08;96159.19;5062982;28;20698;-76
2024/03/21 11:03:05;;;;;;;12.05;9.32;;;;;;;16.61;54.10;96167.94;5062931;28;20184;-77
2024/03/21 11:05:34;;;;;;;12.18;9.25;;;;;;;16.83;53.91;96155.88;5091900;28;20203;-77
2024/03/21 11:07:59;;;;;;;14.18;11.27;;;;;;;16.14;55.50;96150.34;5075055;28;20284;-78
2024/03/21 11:10:26;;;;;;;14.32;11.02;;;;;;;16.56;53.99;96154.50;5073335;28;20318;-77
2024/03/21 11:12:52;;;;;;;15.10;10.52;;;;;;;17.06;53.63;96153.31;5073705;28;20183;-77
2024/03/21 11:15:17;;;;;;;16.13;10.65;;;;;;;17.14;52.87;96142.78;5072960;28;20196;-77
2024/03/21 11:17:43;;;;;;;14.98;9.27;;;;;;;16.75;54.03;96155.91;5075087;28;20837;-78
2024/03/21 11:20:10;;;;;;;10.90;9.30;;;;;;;16.65;54.37;96157.91;5059540;28;20181;-77
2024/03/21 11:22:38;;;;;;;12.73;9.57;;;;;;;16.59;54.82;96163.81;5093403;28;20169;-79
2024/03/21 11:25:03;;;;;;;10.35;9.07;;;;;;;16.60;54.66;96149.72;5052194;28;20240;-78
2024/03/21 11:27:29;;;;;;;15.05;9.45;;;;;;;16.55;54.89;96158.09;5091089;28;20720;-78
2024/03/21 11:29:54;;;;;;;11.02;9.27;;;;;;;16.37;55.32;96157.50;5061947;28;20168;-77
2024/03/21 11:32:22;;;;;;;11.35;8.95;;;;;;;16.40;54.58;96150.13;5094101;28;20184;-78